createdAt,value
2018-03-23T00:01:17.736Z,83.07
2018-03-23T00:03:45.261Z,90.67
2018-03-23T00:06:12.749Z,78.97
2018-03-23T00:08:41.038Z,78.63
2018-03-23T00:11:09.301Z,83.63
2018-03-23T00:13:36.812Z,82.00
2018-03-23T00:16:04.307Z,85.20
2018-03-23T00:18:31.823Z,91.77
2018-03-23T00:20:59.300Z,86.23
2018-03-23T00:23:27.588Z,87.93
2018-03-23T00:25:55.841Z,84.87
2018-03-23T00:28:23.350Z,78.00
2018-03-23T00:30:50.845Z,94.67
2018-03-23T00:33:18.363Z,90.13
2018-03-23T00:35:45.867Z,93.40
2018-03-23T00:38:14.156Z,88.80
2018-03-23T00:40:42.424Z,90.27
2018-03-23T00:43:09.937Z,89.07
2018-03-23T00:45:37.433Z,95.63
2018-03-23T00:48:04.959Z,90.33
2018-03-23T00:50:33.226Z,94.20
2018-03-23T00:53:00.744Z,85.03
2018-03-23T00:55:28.239Z,101.60
2018-03-23T00:57:55.754Z,100.17
2018-03-23T01:00:24.073Z,105.53
2018-03-23T01:02:51.605Z,96.13
2018-03-23T01:05:19.108Z,96.30
2018-03-23T01:07:46.634Z,93.17
2018-03-23T01:10:14.134Z,109.67
2018-03-23T01:12:42.431Z,91.07
2018-03-23T01:15:10.689Z,89.47
2018-03-23T01:17:38.205Z,85.23
2018-03-23T01:20:05.707Z,89.50
2018-03-23T01:22:33.260Z,94.53
2018-03-23T01:25:00.752Z,103.70
2018-03-23T01:27:28.271Z,99.20
2018-03-23T01:29:56.538Z,100.47
2018-03-23T01:32:24.060Z,97.80
2018-03-23T01:34:51.555Z,105.07
2018-03-23T01:37:19.071Z,88.90
2018-03-23T01:39:46.564Z,96.37
2018-03-23T01:42:14.103Z,103.30
2018-03-23T01:44:41.593Z,100.33
2018-03-23T01:47:09.880Z,91.50
2018-03-23T01:49:38.192Z,92.20
2018-03-23T01:52:05.720Z,101.30
2018-03-23T01:54:33.211Z,101.80
2018-03-23T01:57:01.507Z,101.87
2018-03-23T01:59:29.788Z,94.30
2018-03-23T02:01:57.307Z,91.80
2018-03-23T02:07:16.176Z,94.60
2018-03-23T02:09:44.427Z,88.80
2018-03-23T02:12:11.951Z,96.50
2018-03-23T02:14:39.440Z,95.97
2018-03-23T02:17:06.958Z,103.57
2018-03-23T02:19:34.447Z,107.00
2018-03-23T02:22:02.749Z,98.60
2018-03-23T02:24:30.248Z,100.70
2018-03-23T02:26:57.764Z,117.30
2018-03-23T02:29:25.273Z,112.90
2018-03-23T02:31:52.776Z,94.17
2018-03-23T02:34:20.284Z,105.50
2018-03-23T02:36:47.828Z,99.13
2018-03-23T02:39:15.321Z,112.00
2018-03-23T02:41:42.844Z,99.97
2018-03-23T02:44:10.328Z,94.93
2018-03-23T02:46:37.850Z,101.57
2018-03-23T02:49:06.107Z,97.97
2018-03-23T02:51:33.611Z,97.40
2018-03-23T02:54:01.148Z,96.50
2018-03-23T02:56:28.660Z,103.60
2018-03-23T02:58:56.176Z,91.43
2018-03-23T03:01:23.658Z,98.50
2018-03-23T03:03:51.180Z,94.07
2018-03-23T03:06:18.671Z,83.50
2018-03-23T03:08:46.192Z,85.07
2018-03-23T03:11:13.676Z,99.40
2018-03-23T03:13:41.951Z,92.43
2018-03-23T03:16:09.441Z,79.83
2018-03-23T03:18:36.988Z,92.77
2018-03-23T03:21:04.484Z,92.17
2018-03-23T03:23:32.758Z,91.90
2018-03-23T03:26:00.235Z,89.27
2018-03-23T03:28:28.516Z,91.10
2018-03-23T03:30:55.996Z,96.53
2018-03-23T03:33:24.279Z,96.70
2018-03-23T03:35:52.532Z,103.43
2018-03-23T03:38:20.609Z,91.30
2018-03-23T03:40:48.385Z,99.97
2018-03-23T03:43:15.898Z,88.77
2018-03-23T03:45:43.392Z,106.10
2018-03-23T03:48:10.907Z,116.60
2018-03-23T03:50:38.383Z,106.70
2018-03-23T03:53:05.898Z,100.30
2018-03-23T03:55:34.146Z,103.87
2018-03-23T03:58:01.709Z,89.60
2018-03-23T04:00:29.155Z,106.07
2018-03-23T04:02:56.671Z,93.90
2018-03-23T04:05:24.155Z,109.80
2018-03-23T04:07:51.671Z,95.47
2018-03-23T04:10:19.150Z,95.33
2018-03-23T04:12:46.677Z,88.70
2018-03-23T04:15:14.927Z,90.27
2018-03-23T04:17:42.432Z,87.27
2018-03-23T04:20:09.920Z,83.03
2018-03-23T04:22:37.464Z,69.93
2018-03-23T04:25:04.949Z,79.87
2018-03-23T04:27:33.233Z,101.27
2018-03-23T04:30:01.480Z,99.90
2018-03-23T04:32:29.000Z,86.97
2018-03-23T04:34:56.481Z,96.60
2018-03-23T04:37:23.967Z,94.50
2018-03-23T04:39:51.487Z,89.83
2018-03-23T04:42:18.996Z,107.53
2018-03-23T04:44:46.515Z,103.23
2018-03-23T04:47:13.998Z,98.80
2018-03-23T04:49:41.521Z,96.27
2018-03-23T04:52:09.004Z,108.77
2018-03-23T04:54:36.519Z,96.13
2018-03-23T04:57:04.035Z,93.83
2018-03-23T04:59:31.580Z,98.47
2018-03-23T05:01:59.074Z,90.13
2018-03-23T05:04:26.595Z,92.47
2018-03-23T05:06:54.108Z,93.40
2018-03-23T05:09:22.387Z,85.13
2018-03-23T05:11:50.635Z,79.90
2018-03-23T05:14:18.159Z,93.90
2018-03-23T05:16:45.644Z,89.73
2018-03-23T05:19:13.155Z,94.60
2018-03-23T05:21:40.630Z,79.77
2018-03-23T05:24:08.215Z,77.70
2018-03-23T05:26:35.788Z,76.97
2018-03-23T05:29:03.279Z,71.37
2018-03-23T05:31:30.885Z,73.70
2018-03-23T05:33:58.442Z,66.00
2018-03-23T05:36:26.041Z,64.17
2018-03-23T05:38:53.558Z,73.50
2018-03-23T05:41:22.048Z,79.23
2018-03-23T05:43:49.564Z,73.47
2018-03-23T05:46:17.349Z,78.07
2018-03-23T05:48:56.646Z,81.17
2018-03-23T05:51:24.135Z,61.97
2018-03-23T05:53:52.420Z,73.53
2018-03-23T05:56:20.684Z,87.93
2018-03-23T05:58:48.212Z,63.57
2018-03-23T06:01:15.761Z,63.77
2018-03-23T06:03:43.318Z,65.17
2018-03-23T06:06:10.786Z,68.30
2018-03-23T06:08:38.299Z,62.10
2018-03-23T06:11:05.831Z,69.03
2018-03-23T06:13:33.422Z,70.17
2018-03-23T06:16:00.922Z,63.50
2018-03-23T06:18:28.575Z,68.33
2018-03-23T06:20:56.109Z,64.00
2018-03-23T06:23:23.627Z,67.80
2018-03-23T06:25:51.115Z,64.13
2018-03-23T06:28:18.692Z,59.77
2018-03-23T06:30:46.185Z,62.97
2018-03-23T06:33:13.719Z,72.50
2018-03-23T06:35:41.237Z,72.77
2018-03-23T06:38:09.503Z,56.70
2018-03-23T06:40:37.018Z,65.33
2018-03-23T06:43:05.272Z,68.17
2018-03-23T06:45:32.796Z,62.37
2018-03-23T06:48:00.323Z,56.67
2018-03-23T06:50:27.836Z,59.50
2018-03-23T06:52:56.094Z,52.43
2018-03-23T06:55:23.630Z,55.33
2018-03-23T06:57:51.122Z,65.07
2018-03-23T07:00:18.627Z,66.37
2018-03-23T07:02:46.879Z,51.90
2018-03-23T07:05:14.413Z,51.07
2018-03-23T07:07:41.943Z,51.43
2018-03-23T07:10:09.480Z,48.63
2018-03-23T07:12:36.976Z,67.43
2018-03-23T07:15:04.512Z,52.83
2018-03-23T07:17:31.990Z,58.70
2018-03-23T07:19:59.502Z,50.43
2018-03-23T07:22:27.265Z,57.17
2018-03-23T07:24:54.788Z,65.97
2018-03-23T07:27:22.312Z,51.87
2018-03-23T07:29:49.798Z,46.13
2018-03-23T07:32:18.059Z,45.70
2018-03-23T07:34:45.576Z,41.13
2018-03-23T07:37:13.881Z,44.60
2018-03-23T07:39:41.399Z,50.13
2018-03-23T07:42:08.887Z,54.27
2018-03-23T07:44:36.400Z,42.00
2018-03-23T07:47:03.886Z,36.20
2018-03-23T07:49:31.396Z,36.20
2018-03-23T07:51:58.879Z,35.73
2018-03-23T07:54:27.176Z,36.53
2018-03-23T07:56:54.670Z,39.57
2018-03-23T07:59:23.654Z,40.57
2018-03-23T08:01:51.912Z,42.87
2018-03-23T08:04:19.435Z,32.20
2018-03-23T08:06:46.918Z,36.67
2018-03-23T08:09:14.499Z,36.03
2018-03-23T08:11:42.002Z,32.27
2018-03-23T08:14:09.521Z,30.37
2018-03-23T08:16:37.024Z,33.97
2018-03-23T08:19:04.571Z,38.07
2018-03-23T08:21:32.059Z,27.87
2018-03-23T08:23:59.592Z,32.80
2018-03-23T08:26:27.851Z,33.10
2018-03-23T08:28:55.360Z,31.60
2018-03-23T08:31:22.847Z,27.33
2018-03-23T08:33:50.375Z,28.10
2018-03-23T08:36:17.908Z,31.53
2018-03-23T08:38:45.459Z,26.17
2018-03-23T08:41:12.944Z,30.83
2018-03-23T08:43:40.475Z,30.20
2018-03-23T08:46:08.734Z,25.37
2018-03-23T08:48:36.295Z,24.87
2018-03-23T08:51:03.810Z,21.60
2018-03-23T08:53:32.112Z,19.83
2018-03-23T08:55:59.595Z,24.37
2018-03-23T08:58:27.111Z,21.80
2018-03-23T09:00:54.601Z,22.50
2018-03-23T09:03:22.139Z,24.20
2018-03-23T09:05:49.652Z,24.97
2018-03-23T09:08:17.167Z,20.23
2018-03-23T09:10:44.648Z,19.97
2018-03-23T09:13:12.168Z,23.10
2018-03-23T09:15:40.423Z,23.80
2018-03-23T09:18:07.944Z,24.73
2018-03-23T09:20:35.493Z,18.93
2018-03-23T09:23:02.968Z,28.23
2018-03-23T09:25:31.221Z,20.57
2018-03-23T09:27:58.762Z,25.93
2018-03-23T09:30:26.268Z,18.33
2018-03-23T09:32:53.790Z,20.70
2018-03-23T09:35:21.279Z,24.93
2018-03-23T09:37:48.804Z,24.57
2018-03-23T09:40:16.295Z,23.20
2018-03-23T09:42:44.579Z,27.60
2018-03-23T09:45:12.832Z,23.00
2018-03-23T09:47:40.351Z,21.23
2018-03-23T09:50:07.843Z,26.77
2018-03-23T09:52:35.363Z,28.57
2018-03-23T09:55:02.855Z,24.07
2018-03-23T09:57:31.111Z,23.93
2018-03-23T09:59:58.634Z,22.87
2018-03-23T10:02:26.119Z,30.67
2018-03-23T10:04:53.646Z,24.37
2018-03-23T10:07:21.900Z,26.00
2018-03-23T10:09:49.416Z,32.80
2018-03-23T10:12:17.671Z,25.33
2018-03-23T10:14:45.194Z,28.20
2018-03-23T10:17:12.691Z,25.90
2018-03-23T10:19:40.216Z,27.40
2018-03-23T10:22:08.472Z,23.23
2018-03-23T10:24:36.001Z,22.33
2018-03-23T10:27:03.495Z,22.47
2018-03-23T10:29:31.007Z,22.60
2018-03-23T10:31:58.516Z,21.83
2018-03-23T10:34:26.023Z,25.30
2018-03-23T10:36:53.539Z,24.00
2018-03-23T10:39:21.819Z,24.37
2018-03-23T10:41:50.077Z,19.87
2018-03-23T10:44:17.598Z,25.67
2018-03-23T10:46:45.155Z,22.83
2018-03-23T10:49:12.650Z,25.30
2018-03-23T10:51:40.140Z,21.53
2018-03-23T10:54:07.664Z,19.17
2018-03-23T10:56:35.931Z,25.17
2018-03-23T10:59:03.460Z,21.03
2018-03-23T11:01:31.793Z,28.17
2018-03-23T11:03:59.365Z,28.13
2018-03-23T11:06:26.869Z,24.73
2018-03-23T11:08:54.516Z,22.80
2018-03-23T11:11:22.003Z,21.23
2018-03-23T11:13:50.293Z,23.50
2018-03-23T11:16:17.812Z,26.17
2018-03-23T11:18:45.335Z,24.63
2018-03-23T11:21:13.603Z,20.43
2018-03-23T11:23:41.122Z,26.80
2018-03-23T11:26:08.675Z,21.67
2018-03-23T11:28:36.971Z,25.60
2018-03-23T11:31:05.351Z,20.30
2018-03-23T11:33:33.630Z,23.40
2018-03-23T11:36:01.123Z,19.90
2018-03-23T11:38:29.408Z,25.60
2018-03-23T11:40:57.679Z,21.63
2018-03-23T11:43:25.216Z,18.30
2018-03-23T11:45:52.733Z,25.47
2018-03-23T11:48:21.040Z,21.47
2018-03-23T11:50:48.603Z,18.70
2018-03-23T11:53:17.003Z,23.03
2018-03-23T11:55:44.511Z,21.93
2018-03-23T11:58:12.047Z,26.07
2018-03-23T12:00:40.314Z,18.90
2018-03-23T12:03:09.377Z,20.60
2018-03-23T12:05:36.863Z,22.10
2018-03-23T12:08:04.376Z,30.07
2018-03-23T12:10:31.863Z,24.10
2018-03-23T12:12:59.379Z,24.23
2018-03-23T12:15:26.869Z,23.77
2018-03-23T12:17:54.400Z,17.93
2018-03-23T12:20:22.658Z,23.20
2018-03-23T12:22:51.015Z,19.43
2018-03-23T12:25:18.756Z,19.83
2018-03-23T12:27:46.325Z,20.87
2018-03-23T12:30:13.820Z,18.80
2018-03-23T12:32:41.356Z,19.33
2018-03-23T12:35:08.852Z,19.57
2018-03-23T12:37:36.378Z,20.03
2018-03-23T12:40:04.645Z,22.40
2018-03-23T12:42:32.167Z,22.30
2018-03-23T12:44:59.675Z,22.03
2018-03-23T12:47:27.212Z,26.03
2018-03-23T12:49:54.703Z,19.17
2018-03-23T12:52:22.216Z,22.70
2018-03-23T12:54:49.711Z,19.90
2018-03-23T12:57:17.243Z,22.03
2018-03-23T12:59:44.738Z,25.50
2018-03-23T13:02:13.020Z,20.23
2018-03-23T13:04:41.268Z,26.57
2018-03-23T13:07:08.831Z,25.87
2018-03-23T13:09:36.312Z,21.70
2018-03-23T13:12:03.827Z,16.67
2018-03-23T13:14:32.074Z,20.93
2018-03-23T13:16:59.636Z,19.07
2018-03-23T13:19:27.139Z,13.30
2018-03-23T13:21:54.672Z,16.90
2018-03-23T13:24:22.156Z,14.97
2018-03-23T13:26:49.712Z,16.93
2018-03-23T13:29:17.212Z,16.13
2018-03-23T13:31:44.708Z,17.37
2018-03-23T13:34:12.998Z,16.40
2018-03-23T13:36:40.498Z,20.40
2018-03-23T13:39:08.031Z,13.80
2018-03-23T13:41:35.559Z,18.33
2018-03-23T13:44:03.147Z,13.30
2018-03-23T13:46:30.679Z,14.07
2018-03-23T13:48:58.221Z,10.40
2018-03-23T13:51:25.708Z,13.70
2018-03-23T13:53:53.235Z,12.93
2018-03-23T13:56:20.731Z,12.43
2018-03-23T13:58:53.868Z,14.17
2018-03-23T14:01:26.965Z,15.13
2018-03-23T14:03:55.251Z,12.20
2018-03-23T14:06:22.764Z,13.27
2018-03-23T14:08:50.286Z,16.40
2018-03-23T14:11:17.776Z,10.77
2018-03-23T14:13:45.310Z,14.00
2018-03-23T14:16:12.811Z,10.40
2018-03-23T14:18:41.095Z,14.67
2018-03-23T14:21:08.599Z,14.40
2018-03-23T14:23:36.109Z,11.63
2018-03-23T14:26:03.625Z,13.93
2018-03-23T14:28:31.151Z,11.47
2018-03-23T14:30:58.628Z,13.93
2018-03-23T14:33:26.179Z,13.40
2018-03-23T14:35:53.665Z,10.53
2018-03-23T14:38:21.181Z,12.67
2018-03-23T14:40:48.694Z,12.50
2018-03-23T14:43:16.215Z,14.17
2018-03-23T14:45:44.458Z,10.43
2018-03-23T14:48:11.994Z,10.17
2018-03-23T14:50:39.477Z,10.27
2018-03-23T14:53:06.996Z,13.10
2018-03-23T14:55:35.971Z,9.30
2018-03-23T14:58:03.671Z,8.60
2018-03-23T15:00:31.171Z,11.57
2018-03-23T15:02:58.704Z,11.07
2018-03-23T15:05:26.185Z,10.33
2018-03-23T15:07:53.703Z,9.07
2018-03-23T15:10:21.175Z,8.43
2018-03-23T15:12:48.683Z,7.97
2018-03-23T15:15:16.209Z,9.43
2018-03-23T15:17:43.733Z,12.20
2018-03-23T15:20:11.305Z,8.00
2018-03-23T15:22:38.878Z,9.53
2018-03-23T15:25:06.367Z,7.90
2018-03-23T15:27:34.680Z,11.43
2018-03-23T15:30:02.180Z,7.23
2018-03-23T15:32:29.692Z,7.83
2018-03-23T15:34:57.188Z,6.47
2018-03-23T15:37:25.470Z,7.10
2018-03-23T15:39:52.956Z,9.57
2018-03-23T15:42:20.468Z,9.33
2018-03-23T15:44:47.963Z,8.67
2018-03-23T15:47:15.586Z,7.87
2018-03-23T15:49:43.102Z,11.30
2018-03-23T15:52:10.620Z,12.40
2018-03-23T15:54:38.132Z,8.83
2018-03-23T15:57:05.706Z,10.13
2018-03-23T15:59:33.258Z,11.80
2018-03-23T16:02:00.842Z,17.03
2018-03-23T16:04:29.101Z,11.30
2018-03-23T16:06:56.604Z,12.53
2018-03-23T16:09:24.152Z,10.53
2018-03-23T16:11:51.657Z,12.17
2018-03-23T16:14:19.171Z,10.33
2018-03-23T16:16:47.423Z,10.83
2018-03-23T16:19:15.032Z,12.17
2018-03-23T16:21:43.326Z,9.80
2018-03-23T16:24:10.848Z,12.93
2018-03-23T16:26:38.351Z,15.10
2018-03-23T16:29:06.620Z,12.00
2018-03-23T16:31:34.140Z,10.57
2018-03-23T16:34:01.679Z,13.43
2018-03-23T16:36:29.163Z,15.30
2018-03-23T16:38:57.447Z,15.03
2018-03-23T16:41:25.745Z,13.07
2018-03-23T16:43:53.294Z,16.77
2018-03-23T16:46:20.783Z,18.63
2018-03-23T16:48:49.075Z,16.07
2018-03-23T16:51:17.355Z,12.60
2018-03-23T16:53:45.629Z,12.27
2018-03-23T16:56:13.151Z,14.60
2018-03-23T16:58:40.700Z,15.10
2018-03-23T17:01:08.240Z,14.50
2018-03-23T17:03:35.817Z,17.33
2018-03-23T17:06:03.323Z,12.43
2018-03-23T17:08:31.656Z,13.23
2018-03-23T17:10:59.223Z,16.10
2018-03-23T17:13:27.270Z,17.63
2018-03-23T17:15:54.782Z,19.70
2018-03-23T17:18:22.297Z,16.20
2018-03-23T17:20:49.817Z,16.93
2018-03-23T17:23:17.423Z,19.67
2018-03-23T17:25:44.916Z,18.13
2018-03-23T17:28:13.238Z,22.40
2018-03-23T17:30:40.727Z,20.90
2018-03-23T17:33:08.251Z,25.03
2018-03-23T17:35:35.808Z,26.70
2018-03-23T17:38:03.355Z,24.23
2018-03-23T17:40:30.872Z,19.73
2018-03-23T17:42:59.127Z,21.53
2018-03-23T17:45:26.662Z,24.10
2018-03-23T17:47:54.163Z,23.43
2018-03-23T17:50:21.687Z,26.27
2018-03-23T17:52:49.184Z,21.77
2018-03-23T17:55:16.720Z,21.73
2018-03-23T17:57:44.615Z,16.27
2018-03-23T18:00:12.148Z,20.10
2018-03-23T18:02:39.736Z,19.97
2018-03-23T18:05:08.083Z,20.60
2018-03-23T18:07:35.701Z,19.30
2018-03-23T18:10:04.082Z,22.63
2018-03-23T18:12:32.348Z,17.30
2018-03-23T18:14:59.860Z,25.10
2018-03-23T18:17:28.108Z,17.97
2018-03-23T18:19:55.619Z,15.87
2018-03-23T18:22:24.305Z,21.97
2018-03-23T18:24:53.643Z,17.87
2018-03-23T18:27:21.895Z,24.07
2018-03-23T18:29:49.397Z,18.10
2018-03-23T18:32:16.924Z,22.13
2018-03-23T18:34:44.444Z,18.13
2018-03-23T18:37:12.018Z,27.13
2018-03-23T18:39:39.568Z,16.87
2018-03-23T18:42:07.057Z,17.67
2018-03-23T18:44:35.318Z,18.53
2018-03-23T18:47:02.846Z,20.30
2018-03-23T18:49:30.332Z,20.53
2018-03-23T18:51:57.883Z,28.27
2018-03-23T18:54:25.372Z,21.47
2018-03-23T18:56:52.951Z,23.20
2018-03-23T18:59:20.442Z,20.90
2018-03-23T19:01:47.968Z,26.23
2018-03-23T19:04:15.481Z,19.67
2018-03-23T19:06:42.993Z,19.27
2018-03-23T19:09:11.245Z,23.83
2018-03-23T19:11:38.793Z,21.93
2018-03-23T19:14:06.363Z,23.83
2018-03-23T19:16:34.331Z,23.37
2018-03-23T19:19:03.558Z,21.10
2018-03-23T19:21:33.746Z,20.87
2018-03-23T19:24:04.656Z,25.83
2018-03-23T19:26:32.187Z,25.13
2018-03-23T19:28:59.684Z,19.00
2018-03-23T19:31:27.204Z,19.70
2018-03-23T19:33:54.691Z,24.83
2018-03-23T19:36:22.971Z,23.80
2018-03-23T19:38:51.285Z,16.80
2018-03-23T19:41:18.840Z,21.33
2018-03-23T19:43:47.101Z,18.40
2018-03-23T19:46:14.633Z,21.33
2018-03-23T19:48:42.147Z,21.30
2018-03-23T19:51:09.691Z,21.27
2018-03-23T19:53:37.181Z,22.17
2018-03-23T19:56:04.700Z,21.27
2018-03-23T19:58:32.199Z,21.57
2018-03-23T20:01:28.805Z,20.97
2018-03-23T20:03:56.311Z,17.40
2018-03-23T20:06:24.600Z,16.80
2018-03-23T20:08:52.095Z,17.30
2018-03-23T20:11:19.631Z,21.70
2018-03-23T20:13:52.895Z,17.70
2018-03-23T20:16:20.443Z,20.90
2018-03-23T20:18:47.971Z,19.80
2018-03-23T20:21:16.247Z,18.63
2018-03-23T20:23:43.758Z,17.83
2018-03-23T20:26:11.279Z,23.20
2018-03-23T20:28:40.791Z,17.63
2018-03-23T20:31:08.311Z,15.10
2018-03-23T20:33:35.844Z,17.70
2018-03-23T20:36:04.233Z,16.93
2018-03-23T20:38:31.735Z,19.90
2018-03-23T20:40:59.282Z,22.70
2018-03-23T20:43:27.331Z,16.57
2018-03-23T20:45:55.415Z,25.40
2018-03-23T20:48:22.915Z,17.73
2018-03-23T20:50:50.400Z,19.50
2018-03-23T20:53:18.704Z,17.60
2018-03-23T20:55:46.201Z,18.20
2018-03-23T20:58:13.739Z,17.80
2018-03-23T21:00:41.984Z,33.07
2018-03-23T21:03:09.502Z,20.90
2018-03-23T21:05:37.804Z,20.90
2018-03-23T21:08:05.324Z,17.27
2018-03-23T21:10:32.831Z,16.90
2018-03-23T21:13:00.372Z,19.00
2018-03-23T21:15:27.915Z,20.07
2018-03-23T21:17:55.476Z,19.13
2018-03-23T21:20:22.967Z,20.70
2018-03-23T21:22:50.523Z,24.53
2018-03-23T21:25:18.019Z,25.13
2018-03-23T21:27:45.553Z,25.80
2018-03-23T21:30:13.056Z,23.87
2018-03-23T21:32:40.599Z,21.97
2018-03-23T21:35:08.087Z,26.73
2018-03-23T21:37:35.600Z,18.80
2018-03-23T21:40:03.095Z,23.90
2018-03-23T21:42:32.308Z,22.73
2018-03-23T21:44:59.808Z,23.03
2018-03-23T21:47:27.752Z,19.50
2018-03-23T21:49:55.491Z,21.93
2018-03-23T21:52:22.978Z,17.00
2018-03-23T21:54:50.487Z,19.77
2018-03-23T21:57:17.992Z,19.53
2018-03-23T21:59:45.516Z,19.00
2018-03-23T22:02:13.793Z,16.87
2018-03-23T22:04:42.085Z,20.73
2018-03-23T22:07:09.643Z,19.43
2018-03-23T22:09:37.114Z,16.43
2018-03-23T22:12:04.629Z,16.40
2018-03-23T22:14:32.179Z,17.40
2018-03-23T22:17:00.432Z,20.63
2018-03-23T22:19:28.051Z,22.63
2018-03-23T22:21:55.579Z,20.63
2018-03-23T22:24:23.086Z,17.07
2018-03-23T22:26:51.383Z,19.03
2018-03-23T22:29:18.898Z,16.13
2018-03-23T22:31:46.383Z,20.43
2018-03-23T22:34:13.920Z,17.17
2018-03-23T22:36:41.404Z,23.30
2018-03-23T22:39:08.937Z,15.87
2018-03-23T22:41:37.287Z,18.17
2018-03-23T22:44:04.799Z,13.50
2018-03-23T22:46:33.052Z,22.90
2018-03-23T22:49:00.587Z,17.80
2018-03-23T22:51:28.064Z,15.00
2018-03-23T22:53:55.585Z,23.67
2018-03-23T22:56:23.087Z,14.37
2018-03-23T22:58:50.631Z,16.17
2018-03-23T23:01:18.116Z,14.63
2018-03-23T23:03:46.402Z,18.80
2018-03-23T23:06:13.876Z,15.70
2018-03-23T23:08:42.152Z,17.40
2018-03-23T23:11:09.636Z,17.00
2018-03-23T23:13:38.083Z,14.90
2018-03-23T23:16:05.564Z,18.47
2018-03-23T23:18:33.125Z,19.00
2018-03-23T23:21:00.616Z,17.63
2018-03-23T23:23:28.127Z,22.67
2018-03-23T23:25:55.615Z,18.20
2018-03-23T23:28:23.126Z,15.30
2018-03-23T23:30:50.616Z,15.43
2018-03-23T23:33:18.123Z,17.20
2018-03-23T23:35:45.596Z,12.73
2018-03-23T23:38:13.114Z,19.70
2018-03-23T23:40:40.596Z,16.83
2018-03-23T23:43:08.119Z,17.03
2018-03-23T23:45:35.652Z,19.00
2018-03-23T23:48:03.120Z,18.40
2018-03-23T23:50:31.363Z,22.33
2018-03-23T23:52:58.875Z,19.60
2018-03-23T23:55:27.126Z,17.60
2018-03-23T23:57:54.649Z,19.60
